Atlantic - Newfoundland: Past 24 Hour Conditions

 

Twillingate

01:30 PM NDT 17 April 2014
This table is a summary of hourly weather conditions for the past 24 hours.
Date / Time
(NDT)
Wind(knots) Conditions Visibility(km) Pressure(kPa) Air tempC) Relative humidity(%) Dew pointC) Wind Chill
17 April 2014
13:30 WNW 19 gust 24 N/A N/A 103.7 -2 53 -10 -9
12:30 WNW 18 gust 25 N/A N/A 103.6 -1 53 -10 -9
11:30 W 17 gust 23 N/A N/A 103.5 -1 55 -9 -8
10:30 W 13 gust 20 N/A N/A 103.4 -1 55 -9 -7
9:30 WNW 18 gust 25 N/A N/A 103.3 -1 54 -9 -8
8:30 WNW 17 gust 23 N/A N/A 103.2 -1 58 -9 -8
7:30 W 17 gust 23 N/A N/A 103.1 -2 63 -8 -9
6:30 W 16 gust 26 N/A N/A 103.0 -2 67 -7 -9
5:30 WNW 14 gust 22 N/A N/A 102.8 -1 69 -6 -8
4:30 W 16 gust 24 N/A N/A 102.7 -1 71 -6 -8
3:30 W 19 gust 26 N/A N/A 102.5 -1 71 -6 -9
2:30 W 17 gust 28 N/A N/A 102.3 -1 75 -5 -8
1:30 W 21 gust 27 N/A N/A 102.2 -1 73 -5 -8
0:30 WSW 22 gust 27 N/A N/A 102.1 -1 74 -5 -8
16 April 2014
23:30 WSW 25 gust 30 N/A N/A 101.9 0 79 -3 *
22:30 WSW 25 gust 32 N/A N/A 101.6 2 76 -2 *
21:30 WSW 31 gust 40 N/A N/A 101.5 3 79 -1 *
20:30 WSW 33 gust 40 N/A N/A 101.1 6 86 4 *
19:30 SW 21 gust 35 N/A N/A 100.9 9 84 7 *
18:30 SW 23 gust 38 N/A N/A 100.7 12 77 8 *
17:30 SW 26 gust 40 N/A N/A 100.8 11 79 8 *
16:30 SW 28 gust 40 N/A N/A 100.8 12 78 8 *
15:30 SW 19 gust 35 N/A N/A 100.9 12 73 8 *
14:30 SSW 19 gust 29 N/A N/A 101.0 13 70 8 *
13:30 SSW 16 gust 31 N/A N/A 101.1 13 69 8 *
 
Map of Atlantic - Newfoundland marine weather areas Southwestern Grand Banks - 44138 Banquereau - 44139 Tail of the Bank - 44140 Nickerson Bank - 44251 Northeast Burgeo Bank - 44255 Blanc-Sablon Airport Cap Whittle Chevery Natashquan Airport Heath Point Miscou Island Grand Étang Ingonish Beach North Mountain St.Paul Island J.A. Douglas McCurdy Sydney Airport Charlottetown Airport East Point North Cape Argentia Bonavista Burgeo Cape Race Corner Brook Daniel's Harbour Englee Ferolle Point La Scie Port aux Basques Rocky Harbour Sagona Island St. Anthony Airport St. John's Int'l Airport St. Lawrence Stephenville Airport Twillingate Winterland Wreckhouse Cartwright Airport Mary's Harbour Grates Cove Pool's Island Marticot Island Long Pond Îles de la Madeleine Airport
Legend: buoyBuoy land stationLand Station